createdAt,value
2022-08-08T00:01:08.023Z,14.66
2022-08-08T00:04:16.301Z,14.57
2022-08-08T00:06:55.537Z,14.62
2022-08-08T00:09:34.096Z,14.63
2022-08-08T00:12:10.222Z,14.58
2022-08-08T00:14:59.517Z,14.59
2022-08-08T00:18:02.117Z,14.54
2022-08-08T00:20:42.944Z,14.51
2022-08-08T00:23:16.327Z,14.49
2022-08-08T00:25:50.856Z,14.49
2022-08-08T00:28:35.145Z,14.45
2022-08-08T00:32:28.791Z,14.41
2022-08-08T00:34:54.286Z,14.39
2022-08-08T00:37:47.124Z,14.33
2022-08-08T00:41:11.467Z,14.38
2022-08-08T00:43:40.022Z,14.32
2022-08-08T00:46:56.875Z,14.27
2022-08-08T00:49:38.663Z,14.20
2022-08-08T00:52:39.238Z,14.23
2022-08-08T00:55:53.193Z,14.20
2022-08-08T00:58:54.137Z,14.19
2022-08-08T01:01:38.146Z,14.13
2022-08-08T01:04:48.548Z,14.09
2022-08-08T01:07:55.834Z,14.07
2022-08-08T01:10:43.089Z,14.03
2022-08-08T01:13:43.660Z,13.99
2022-08-08T01:16:32.160Z,13.88
2022-08-08T01:19:52.121Z,13.84
2022-08-08T01:22:50.469Z,13.76
2022-08-08T01:25:55.076Z,13.75
2022-08-08T01:28:31.048Z,13.65
2022-08-08T01:31:34.402Z,13.69
2022-08-08T01:35:02.160Z,13.67
2022-08-08T01:38:22.540Z,13.61
2022-08-08T01:41:02.326Z,13.61
2022-08-08T01:43:40.454Z,13.65
2022-08-08T01:46:41.970Z,13.64
2022-08-08T01:49:37.733Z,13.54
2022-08-08T01:52:57.263Z,13.48
2022-08-08T01:56:28.560Z,13.39
2022-08-08T01:59:03.839Z,13.33
2022-08-08T02:02:03.146Z,13.34
2022-08-08T02:04:43.276Z,13.33
2022-08-08T02:07:22.900Z,13.30
2022-08-08T02:10:29.611Z,13.25
2022-08-08T02:13:52.889Z,13.13
2022-08-08T02:16:22.009Z,13.19
2022-08-08T02:19:57.853Z,13.15
2022-08-08T02:22:52.525Z,13.14
2022-08-08T02:25:43.557Z,13.16
2022-08-08T02:28:34.728Z,13.07
2022-08-08T02:31:43.886Z,13.04
2022-08-08T02:35:08.354Z,13.03
2022-08-08T02:38:25.370Z,13.00
2022-08-08T02:41:59.570Z,12.91
2022-08-08T02:44:57.158Z,12.87
2022-08-08T02:47:52.186Z,12.85
2022-08-08T02:50:55.823Z,12.90
2022-08-08T02:53:42.499Z,12.88
2022-08-08T02:56:40.444Z,12.82
2022-08-08T03:00:15.878Z,12.81
2022-08-08T03:05:01.043Z,12.74
2022-08-08T03:06:40.500Z,12.69
2022-08-08T03:09:22.665Z,12.68
2022-08-08T03:12:36.431Z,12.69
2022-08-08T03:16:00.660Z,12.75
2022-08-08T03:18:37.088Z,12.80
2022-08-08T03:21:09.648Z,12.72
2022-08-08T03:23:39.915Z,12.70
2022-08-08T03:26:42.362Z,12.60
2022-08-08T03:29:18.844Z,12.61
2022-08-08T03:32:08.512Z,12.57
2022-08-08T03:34:40.329Z,12.50
2022-08-08T03:38:00.237Z,12.47
2022-08-08T03:40:03.524Z,12.36
2022-08-08T03:42:32.400Z,12.34
2022-08-08T03:45:00.306Z,12.35
2022-08-08T03:47:45.631Z,12.39
2022-08-08T03:50:19.693Z,12.32
2022-08-08T03:52:47.647Z,12.32
2022-08-08T03:55:20.014Z,12.30
2022-08-08T03:58:30.075Z,12.23
2022-08-08T04:01:24.314Z,12.21
2022-08-08T04:03:59.302Z,12.13
2022-08-08T04:06:33.658Z,12.12
2022-08-08T04:09:11.376Z,12.16
2022-08-08T04:11:48.169Z,12.12
2022-08-08T04:14:35.841Z,12.18
2022-08-08T04:17:07.128Z,12.20
2022-08-08T04:19:49.513Z,12.23
2022-08-08T04:22:18.485Z,12.21
2022-08-08T04:24:50.758Z,12.25
2022-08-08T04:27:42.898Z,12.31
2022-08-08T04:30:18.329Z,12.35
2022-08-08T04:32:49.913Z,12.41
2022-08-08T04:35:20.340Z,12.45
2022-08-08T04:37:51.097Z,12.52
2022-08-08T04:40:24.126Z,12.55
2022-08-08T04:42:56.722Z,12.57
2022-08-08T04:45:27.571Z,12.64
2022-08-08T04:48:00.212Z,12.74
2022-08-08T04:50:37.564Z,12.82
2022-08-08T04:53:14.167Z,12.85
2022-08-08T04:55:56.046Z,12.91
2022-08-08T04:58:25.884Z,12.88
2022-08-08T05:00:53.161Z,12.91
2022-08-08T05:04:09.636Z,13.06
2022-08-08T05:06:13.619Z,13.21
2022-08-08T05:08:51.588Z,13.27
2022-08-08T05:11:23.202Z,13.47
2022-08-08T05:13:58.756Z,13.51
2022-08-08T05:16:54.431Z,13.80
2022-08-08T05:20:10.051Z,13.92
2022-08-08T05:22:07.551Z,14.07
2022-08-08T05:24:37.456Z,14.21
2022-08-08T05:27:05.048Z,14.35
2022-08-08T05:29:36.008Z,14.53
2022-08-08T05:32:07.681Z,14.74
2022-08-08T05:34:51.217Z,15.00
2022-08-08T05:37:39.037Z,15.28
2022-08-08T05:40:16.756Z,15.53
2022-08-08T05:42:48.945Z,15.73
2022-08-08T05:45:25.551Z,15.94
2022-08-08T05:48:08.330Z,16.19
2022-08-08T05:50:36.888Z,16.48
2022-08-08T05:53:54.551Z,16.84
2022-08-08T05:56:08.280Z,17.07
2022-08-08T05:58:57.192Z,17.26
2022-08-08T06:01:57.088Z,17.66
2022-08-08T06:04:24.813Z,18.05
2022-08-08T06:07:00.605Z,18.35
2022-08-08T06:10:00.005Z,18.52
2022-08-08T06:12:30.237Z,18.80
2022-08-08T06:15:01.149Z,19.48
2022-08-08T06:17:51.024Z,19.64
2022-08-08T06:20:22.936Z,19.83
2022-08-08T06:22:52.429Z,19.92
2022-08-08T06:25:33.421Z,19.98
2022-08-08T06:28:29.693Z,20.20
2022-08-08T06:31:03.531Z,20.43
2022-08-08T06:34:25.875Z,20.70
2022-08-08T06:36:53.097Z,21.01
2022-08-08T06:39:24.980Z,21.28
2022-08-08T06:42:04.239Z,21.48
2022-08-08T06:44:42.678Z,21.64
2022-08-08T06:47:10.569Z,21.88
2022-08-08T06:49:55.702Z,22.17
2022-08-08T06:52:23.834Z,22.38
2022-08-08T06:54:55.362Z,22.32
2022-08-08T06:57:24.968Z,22.46
2022-08-08T07:00:10.384Z,22.58
2022-08-08T07:02:45.986Z,22.97
2022-08-08T07:05:20.070Z,23.63
2022-08-08T07:08:23.432Z,23.80
2022-08-08T07:10:55.863Z,24.00
2022-08-08T07:13:25.494Z,23.76
2022-08-08T07:16:05.048Z,23.89
2022-08-08T07:19:10.874Z,23.90
2022-08-08T07:22:00.466Z,24.15
2022-08-08T07:24:37.462Z,24.32
2022-08-08T07:27:11.411Z,24.60
2022-08-08T07:30:02.378Z,24.81
2022-08-08T07:32:34.527Z,25.07
2022-08-08T07:35:06.122Z,25.23
2022-08-08T07:37:55.710Z,25.50
2022-08-08T07:40:33.934Z,25.16
2022-08-08T07:43:09.090Z,25.42
2022-08-08T07:46:04.859Z,25.32
2022-08-08T07:48:29.676Z,25.43
2022-08-08T07:51:00.790Z,25.76
2022-08-08T07:54:02.400Z,26.05
2022-08-08T07:56:37.010Z,26.24
2022-08-08T07:59:14.250Z,26.60
2022-08-08T08:02:34.718Z,26.76
2022-08-08T08:04:46.718Z,26.93
2022-08-08T08:07:17.161Z,26.96
2022-08-08T08:09:44.392Z,27.30
2022-08-08T08:12:31.563Z,27.56
2022-08-08T08:15:05.361Z,27.28
2022-08-08T08:17:48.204Z,27.41
2022-08-08T08:20:17.575Z,27.21
2022-08-08T08:22:44.066Z,26.98
2022-08-08T08:25:16.940Z,27.40
2022-08-08T08:27:46.825Z,27.57
2022-08-08T08:30:14.798Z,27.23
2022-08-08T08:32:51.042Z,27.15
2022-08-08T08:35:18.212Z,27.96
2022-08-08T08:38:14.464Z,28.33
2022-08-08T08:40:35.581Z,28.06
2022-08-08T08:43:03.972Z,28.28
2022-08-08T08:45:31.602Z,27.76
2022-08-08T08:48:01.769Z,27.66
2022-08-08T08:50:35.312Z,27.77
2022-08-08T08:53:55.572Z,27.44
2022-08-08T08:56:06.934Z,27.98
2022-08-08T08:58:46.730Z,28.14
2022-08-08T09:01:23.700Z,28.38
2022-08-08T09:03:55.334Z,28.39
2022-08-08T09:06:34.272Z,28.70
2022-08-08T09:09:26.649Z,28.65
2022-08-08T09:12:07.486Z,28.24
2022-08-08T09:14:35.332Z,28.51
2022-08-08T09:17:09.695Z,28.69
2022-08-08T09:22:01.479Z,28.61
2022-08-08T09:22:27.948Z,28.64
2022-08-08T09:24:58.561Z,28.92
2022-08-08T09:27:56.812Z,29.18
2022-08-08T09:30:17.583Z,29.12
2022-08-08T09:33:12.790Z,29.12
2022-08-08T09:35:39.392Z,28.47
2022-08-08T09:38:24.486Z,28.28
2022-08-08T09:41:01.975Z,27.84
2022-08-08T09:44:04.242Z,28.04
2022-08-08T09:46:25.851Z,27.91
2022-08-08T09:48:57.853Z,27.76
2022-08-08T09:52:07.053Z,27.76
2022-08-08T09:54:42.380Z,27.72
2022-08-08T09:57:17.008Z,27.84
2022-08-08T10:00:01.973Z,27.77
2022-08-08T10:02:44.812Z,27.63
2022-08-08T10:05:26.067Z,27.60
2022-08-08T10:08:00.543Z,27.60
2022-08-08T10:10:41.642Z,27.81
2022-08-08T10:13:35.462Z,28.15
2022-08-08T10:16:03.781Z,28.35
2022-08-08T10:18:32.889Z,27.76
2022-08-08T10:21:23.227Z,27.89
2022-08-08T10:23:58.586Z,27.65
2022-08-08T10:26:52.395Z,27.96
2022-08-08T10:29:23.313Z,27.97
2022-08-08T10:32:16.453Z,28.05
2022-08-08T10:34:58.602Z,27.67
2022-08-08T10:37:35.409Z,27.88
2022-08-08T10:40:16.833Z,27.98
2022-08-08T10:42:45.418Z,27.97
2022-08-08T10:45:12.344Z,28.20
2022-08-08T10:47:48.521Z,28.11
2022-08-08T10:50:23.598Z,27.96
2022-08-08T10:52:50.655Z,28.02
2022-08-08T10:55:39.792Z,28.07
2022-08-08T10:58:08.992Z,28.28
2022-08-08T11:00:53.167Z,28.42
2022-08-08T11:04:00.583Z,28.37
2022-08-08T11:06:35.604Z,28.64
2022-08-08T11:09:19.235Z,28.71
2022-08-08T11:12:05.506Z,28.47
2022-08-08T11:14:34.704Z,28.29
2022-08-08T11:17:02.717Z,28.62
2022-08-08T11:19:33.529Z,28.78
2022-08-08T11:22:01.324Z,28.78
2022-08-08T11:24:34.202Z,29.28
2022-08-08T11:27:10.369Z,29.66
2022-08-08T11:29:58.428Z,29.68
2022-08-08T11:32:38.652Z,30.01
2022-08-08T11:35:27.315Z,30.11
2022-08-08T11:38:39.189Z,29.99
2022-08-08T11:40:52.400Z,29.72
2022-08-08T11:43:21.695Z,29.75
2022-08-08T11:46:14.417Z,29.52
2022-08-08T11:48:39.233Z,29.79
2022-08-08T11:51:34.931Z,30.04
2022-08-08T11:53:59.268Z,29.61
2022-08-08T11:56:33.196Z,29.88
2022-08-08T11:59:09.617Z,29.68
2022-08-08T12:01:37.083Z,29.69
2022-08-08T12:04:05.687Z,29.56
2022-08-08T12:06:33.292Z,29.82
2022-08-08T12:09:08.262Z,29.60
2022-08-08T12:11:52.928Z,29.78
2022-08-08T12:14:29.208Z,29.84
2022-08-08T12:16:57.106Z,29.50
2022-08-08T12:19:38.009Z,29.80
2022-08-08T12:22:13.926Z,30.01
2022-08-08T12:24:53.948Z,30.52
2022-08-08T12:27:26.947Z,30.67
2022-08-08T12:30:02.409Z,30.70
2022-08-08T12:32:41.465Z,30.68
2022-08-08T12:35:23.106Z,30.97
2022-08-08T12:38:05.859Z,31.14
2022-08-08T12:40:54.221Z,31.43
2022-08-08T12:43:43.569Z,31.59
2022-08-08T12:46:25.086Z,31.94
2022-08-08T12:49:22.266Z,31.97
2022-08-08T12:51:59.281Z,31.57
2022-08-08T12:54:38.334Z,31.54
2022-08-08T12:57:26.033Z,30.91
2022-08-08T13:00:03.370Z,30.98
2022-08-08T13:02:42.171Z,30.80
2022-08-08T13:05:26.583Z,30.84
2022-08-08T13:08:18.358Z,30.20
2022-08-08T13:10:56.312Z,30.49
2022-08-08T13:13:37.278Z,30.66
2022-08-08T13:16:21.291Z,30.96
2022-08-08T13:18:58.190Z,31.14
2022-08-08T13:21:48.770Z,31.25
2022-08-08T13:24:18.774Z,31.45
2022-08-08T13:27:03.406Z,31.64
2022-08-08T13:29:37.874Z,31.62
2022-08-08T13:32:10.945Z,31.69
2022-08-08T13:34:40.171Z,31.53
2022-08-08T13:37:11.047Z,30.89
2022-08-08T13:39:56.374Z,31.12
2022-08-08T13:42:25.157Z,31.32
2022-08-08T13:44:55.690Z,31.32
2022-08-08T13:47:23.016Z,30.83
2022-08-08T13:50:35.640Z,30.90
2022-08-08T13:52:51.332Z,30.82
2022-08-08T13:55:29.303Z,30.98
2022-08-08T13:58:07.963Z,30.94
2022-08-08T14:00:45.100Z,30.71
2022-08-08T14:03:52.486Z,30.56
2022-08-08T14:06:32.394Z,29.67
2022-08-08T14:08:58.060Z,29.97
2022-08-08T14:11:29.496Z,30.27
2022-08-08T14:13:59.689Z,29.96
2022-08-08T14:16:27.875Z,30.20
2022-08-08T14:19:00.859Z,30.29
2022-08-08T14:21:59.237Z,29.88
2022-08-08T14:24:32.643Z,30.13
2022-08-08T14:26:59.110Z,30.28
2022-08-08T14:29:30.822Z,30.23
2022-08-08T14:32:09.187Z,30.09
2022-08-08T14:34:37.532Z,29.70
2022-08-08T14:37:08.538Z,29.36
2022-08-08T14:40:05.814Z,29.20
2022-08-08T14:42:35.736Z,29.00
2022-08-08T14:45:09.971Z,28.70
2022-08-08T14:47:57.354Z,28.81
2022-08-08T14:50:38.890Z,28.90
2022-08-08T14:53:14.239Z,29.05
2022-08-08T14:55:43.106Z,29.00
2022-08-08T14:58:11.763Z,29.05
2022-08-08T15:00:43.328Z,28.95
2022-08-08T15:03:15.861Z,28.97
2022-08-08T15:05:54.775Z,28.82
2022-08-08T15:08:34.828Z,28.89
2022-08-08T15:11:11.127Z,28.86
2022-08-08T15:14:02.052Z,28.66
2022-08-08T15:16:29.815Z,28.70
2022-08-08T15:19:01.344Z,28.76
2022-08-08T15:21:30.305Z,28.88
2022-08-08T15:23:57.005Z,28.70
2022-08-08T15:26:25.848Z,28.29
2022-08-08T15:28:55.356Z,28.34
2022-08-08T15:31:55.815Z,28.36
2022-08-08T15:34:29.034Z,28.34
2022-08-08T15:36:56.570Z,28.17
2022-08-08T15:39:23.063Z,28.03
2022-08-08T15:41:49.626Z,28.07
2022-08-08T15:44:18.049Z,27.95
2022-08-08T15:46:45.278Z,27.78
2022-08-08T15:49:17.476Z,27.62
2022-08-08T15:51:48.172Z,27.89
2022-08-08T15:54:18.750Z,27.83
2022-08-08T15:57:02.884Z,28.15
2022-08-08T16:00:06.113Z,27.99
2022-08-08T16:02:16.217Z,28.02
2022-08-08T16:04:44.175Z,28.00
2022-08-08T16:07:16.767Z,27.95
2022-08-08T16:13:09.455Z,28.02
2022-08-08T16:13:14.780Z,28.04
2022-08-08T16:15:16.324Z,28.05
2022-08-08T16:18:06.443Z,27.83
2022-08-08T16:24:07.111Z,27.90
2022-08-08T16:26:39.393Z,28.02
2022-08-08T16:29:16.219Z,28.08
2022-08-08T16:31:49.149Z,28.13
2022-08-08T16:34:19.235Z,28.08
2022-08-08T16:36:45.761Z,28.26
2022-08-08T16:39:59.615Z,28.11
2022-08-08T16:42:05.867Z,28.08
2022-08-08T16:44:33.830Z,28.18
2022-08-08T16:47:21.897Z,28.15
2022-08-08T16:49:59.645Z,28.34
2022-08-08T16:55:01.173Z,27.81
2022-08-08T16:55:42.391Z,28.01
2022-08-08T16:58:14.355Z,28.15
2022-08-08T17:00:48.874Z,27.98
2022-08-08T17:03:24.447Z,27.86
2022-08-08T17:05:53.505Z,27.78
2022-08-08T17:08:20.612Z,27.71
2022-08-08T17:10:57.580Z,27.79
2022-08-08T17:13:27.439Z,27.89
2022-08-08T17:16:07.286Z,27.90
2022-08-08T17:18:41.970Z,27.75
2022-08-08T17:21:09.788Z,27.82
2022-08-08T17:24:00.556Z,27.64
2022-08-08T17:26:28.940Z,27.51
2022-08-08T17:28:56.446Z,27.51
2022-08-08T17:31:45.417Z,27.59
2022-08-08T17:34:36.728Z,27.50
2022-08-08T17:37:03.330Z,27.31
2022-08-08T17:40:03.092Z,27.11
2022-08-08T17:42:19.227Z,27.10
2022-08-08T17:44:49.128Z,26.97
2022-08-08T17:47:24.128Z,26.93
2022-08-08T17:50:06.893Z,26.83
2022-08-08T17:52:35.245Z,26.80
2022-08-08T17:56:04.025Z,26.85
2022-08-08T17:57:52.412Z,26.67
2022-08-08T18:00:19.746Z,26.63
2022-08-08T18:03:07.521Z,26.65
2022-08-08T18:05:49.547Z,26.37
2022-08-08T18:08:24.783Z,26.42
2022-08-08T18:11:11.936Z,26.38
2022-08-08T18:13:42.788Z,26.33
2022-08-08T18:16:09.796Z,26.38
2022-08-08T18:18:42.379Z,26.28
2022-08-08T18:21:35.466Z,26.10
2022-08-08T18:23:58.844Z,25.92
2022-08-08T18:26:25.862Z,25.87
2022-08-08T18:28:55.567Z,25.74
2022-08-08T18:31:22.445Z,25.76
2022-08-08T18:34:11.484Z,25.75
2022-08-08T18:36:36.562Z,25.58
2022-08-08T18:39:03.758Z,25.47
2022-08-08T18:41:51.140Z,25.50
2022-08-08T18:44:17.312Z,25.40
2022-08-08T18:46:55.066Z,25.39
2022-08-08T18:49:24.314Z,25.33
2022-08-08T18:51:54.494Z,25.24
2022-08-08T18:54:27.348Z,25.16
2022-08-08T18:56:57.103Z,25.10
2022-08-08T18:59:23.549Z,25.05
2022-08-08T19:02:26.166Z,25.01
2022-08-08T19:04:36.887Z,24.92
2022-08-08T19:07:03.841Z,24.79
2022-08-08T19:09:48.481Z,24.73
2022-08-08T19:12:17.945Z,24.67
2022-08-08T19:14:46.546Z,24.62
2022-08-08T19:17:13.315Z,24.53
2022-08-08T19:20:02.314Z,24.43
2022-08-08T19:22:29.659Z,24.37
2022-08-08T19:26:02.295Z,24.21
2022-08-08T19:27:55.909Z,24.06
2022-08-08T19:30:26.447Z,24.02
2022-08-08T19:32:53.932Z,23.84
2022-08-08T19:35:25.646Z,23.80
2022-08-08T19:38:12.853Z,23.75
2022-08-08T19:40:44.018Z,23.69
2022-08-08T19:43:11.936Z,23.57
2022-08-08T19:45:59.990Z,23.45
2022-08-08T19:48:28.111Z,23.41
2022-08-08T19:50:55.919Z,23.31
2022-08-08T19:53:51.864Z,23.25
2022-08-08T19:56:12.216Z,23.16
2022-08-08T19:58:39.501Z,23.11
2022-08-08T20:01:17.112Z,22.93
2022-08-08T20:04:02.600Z,22.97
2022-08-08T20:06:29.976Z,22.81
2022-08-08T20:08:56.908Z,22.76
2022-08-08T20:11:23.752Z,22.62
2022-08-08T20:14:12.045Z,22.49
2022-08-08T20:16:40.937Z,22.33
2022-08-08T20:19:10.541Z,22.34
2022-08-08T20:21:38.325Z,22.34
2022-08-08T20:24:06.269Z,22.20
2022-08-08T20:26:38.171Z,22.13
2022-08-08T20:29:06.506Z,22.03
2022-08-08T20:32:06.985Z,21.96
2022-08-08T20:34:30.342Z,21.74
2022-08-08T20:36:58.683Z,21.72
2022-08-08T20:39:25.354Z,21.67
2022-08-08T20:42:00.408Z,21.60
2022-08-08T20:44:26.831Z,21.53
2022-08-08T20:46:53.256Z,21.48
2022-08-08T20:49:20.374Z,21.38
2022-08-08T20:51:48.386Z,21.33
2022-08-08T20:54:26.001Z,21.28
2022-08-08T20:57:16.724Z,21.12
2022-08-08T20:59:41.764Z,20.98
2022-08-08T21:02:09.072Z,20.96
2022-08-08T21:04:40.470Z,20.65
2022-08-08T21:07:16.208Z,20.62
2022-08-08T21:09:48.542Z,20.71
2022-08-08T21:12:33.058Z,20.71
2022-08-08T21:15:07.001Z,20.66
2022-08-08T21:17:34.965Z,20.66
2022-08-08T21:20:03.762Z,20.65
2022-08-08T21:22:30.477Z,20.70
2022-08-08T21:24:56.932Z,20.61
2022-08-08T21:28:05.913Z,20.66
2022-08-08T21:30:19.411Z,20.66
2022-08-08T21:32:51.578Z,20.61
2022-08-08T21:36:14.299Z,20.65
2022-08-08T21:38:08.567Z,20.59
2022-08-08T21:40:54.982Z,20.60
2022-08-08T21:43:23.217Z,20.59
2022-08-08T21:48:01.407Z,20.54
2022-08-08T21:48:41.682Z,20.55
2022-08-08T21:51:11.324Z,20.62
2022-08-08T21:54:31.087Z,20.53
2022-08-08T21:56:33.886Z,20.56
2022-08-08T21:59:05.619Z,20.59
2022-08-08T22:01:40.630Z,20.57
2022-08-08T22:06:39.710Z,20.56
2022-08-08T22:09:09.033Z,20.52
2022-08-08T22:12:02.315Z,20.52
2022-08-08T22:14:23.914Z,20.45
2022-08-08T22:16:53.868Z,20.44
2022-08-08T22:19:23.763Z,20.36
2022-08-08T22:21:51.856Z,20.31
2022-08-08T22:24:23.951Z,20.19
2022-08-08T22:27:02.406Z,20.25
2022-08-08T22:30:01.671Z,20.16
2022-08-08T22:32:19.082Z,20.13
2022-08-08T22:34:50.436Z,20.08
2022-08-08T22:37:49.455Z,20.07
2022-08-08T22:40:07.557Z,19.98
2022-08-08T22:42:43.157Z,19.91
2022-08-08T22:45:13.713Z,19.90
2022-08-08T22:47:46.735Z,19.88
2022-08-08T22:50:26.928Z,19.90
2022-08-08T22:54:30.439Z,19.84
2022-08-08T22:55:57.855Z,19.82
2022-08-08T22:58:33.106Z,19.78
2022-08-08T23:01:26.585Z,19.76
2022-08-08T23:03:53.181Z,19.69
2022-08-08T23:06:21.330Z,19.67
2022-08-08T23:08:55.427Z,19.57
2022-08-08T23:11:58.194Z,19.55
2022-08-08T23:14:14.427Z,19.57
2022-08-08T23:16:44.182Z,19.53
2022-08-08T23:19:15.274Z,19.57
2022-08-08T23:21:42.163Z,19.56
2022-08-08T23:24:09.008Z,19.61
2022-08-08T23:26:35.706Z,19.62
2022-08-08T23:29:04.235Z,19.65
2022-08-08T23:31:38.616Z,19.63
2022-08-08T23:34:17.660Z,19.52
2022-08-08T23:36:46.148Z,19.54
2022-08-08T23:39:12.961Z,19.48
2022-08-08T23:41:45.506Z,19.49
2022-08-08T23:44:13.965Z,19.50
2022-08-08T23:49:02.105Z,19.46
2022-08-08T23:49:27.208Z,19.42
2022-08-08T23:52:04.996Z,19.46
2022-08-08T23:54:42.833Z,19.39
2022-08-08T23:57:27.477Z,19.36
